sensor_id;sensor_type;location;lat;lon;timestamp;P1;durP1;ratioP1;P2;durP2;ratioP2
10399;SDS011;10031;51.180;17.168;2022-12-16T00:02:19;116.73;;;46.40;;
10399;SDS011;10031;51.180;17.168;2022-12-16T00:04:45;112.87;;;45.57;;
10399;SDS011;10031;51.180;17.168;2022-12-16T00:07:11;113.47;;;45.67;;
10399;SDS011;10031;51.180;17.168;2022-12-16T00:09:37;113.57;;;48.03;;
10399;SDS011;10031;51.180;17.168;2022-12-16T00:12:04;113.03;;;46.10;;
10399;SDS011;10031;51.180;17.168;2022-12-16T00:14:30;99.67;;;41.67;;
10399;SDS011;10031;51.180;17.168;2022-12-16T00:16:56;102.90;;;43.90;;
10399;SDS011;10031;51.180;17.168;2022-12-16T00:19:22;109.43;;;43.83;;
10399;SDS011;10031;51.180;17.168;2022-12-16T00:21:48;102.97;;;42.30;;
10399;SDS011;10031;51.180;17.168;2022-12-16T00:24:14;98.70;;;41.13;;
10399;SDS011;10031;51.180;17.168;2022-12-16T00:26:40;101.27;;;38.83;;
10399;SDS011;10031;51.180;17.168;2022-12-16T00:29:06;100.67;;;41.10;;
10399;SDS011;10031;51.180;17.168;2022-12-16T00:31:35;101.40;;;41.60;;
10399;SDS011;10031;51.180;17.168;2022-12-16T00:34:01;85.30;;;35.70;;
10399;SDS011;10031;51.180;17.168;2022-12-16T00:36:27;90.33;;;38.43;;
10399;SDS011;10031;51.180;17.168;2022-12-16T00:38:53;98.23;;;39.27;;
10399;SDS011;10031;51.180;17.168;2022-12-16T00:41:19;87.87;;;35.20;;
10399;SDS011;10031;51.180;17.168;2022-12-16T00:43:46;88.03;;;34.97;;
10399;SDS011;10031;51.180;17.168;2022-12-16T00:46:12;86.13;;;33.37;;
10399;SDS011;10031;51.180;17.168;2022-12-16T00:48:38;76.47;;;31.43;;
10399;SDS011;10031;51.180;17.168;2022-12-16T00:51:07;92.03;;;36.97;;
10399;SDS011;10031;51.180;17.168;2022-12-16T00:53:33;83.90;;;35.60;;
10399;SDS011;10031;51.180;17.168;2022-12-16T00:56:09;80.30;;;34.30;;
10399;SDS011;10031;51.180;17.168;2022-12-16T00:58:36;73.90;;;29.70;;
10399;SDS011;10031;51.180;17.168;2022-12-16T01:01:03;80.73;;;33.43;;
10399;SDS011;10031;51.180;17.168;2022-12-16T01:03:29;71.30;;;32.00;;
10399;SDS011;10031;51.180;17.168;2022-12-16T01:05:55;89.80;;;35.83;;
10399;SDS011;10031;51.180;17.168;2022-12-16T01:08:21;81.23;;;34.77;;
10399;SDS011;10031;51.180;17.168;2022-12-16T01:10:51;94.13;;;37.83;;
10399;SDS011;10031;51.180;17.168;2022-12-16T01:13:19;89.13;;;37.83;;
10399;SDS011;10031;51.180;17.168;2022-12-16T01:15:45;89.53;;;36.27;;
10399;SDS011;10031;51.180;17.168;2022-12-16T01:18:11;69.27;;;30.73;;
10399;SDS011;10031;51.180;17.168;2022-12-16T01:20:37;50.57;;;20.93;;
10399;SDS011;10031;51.180;17.168;2022-12-16T01:23:03;69.43;;;28.77;;
10399;SDS011;10031;51.180;17.168;2022-12-16T01:25:29;51.57;;;23.97;;
10399;SDS011;10031;51.180;17.168;2022-12-16T01:27:55;58.13;;;24.20;;
10399;SDS011;10031;51.180;17.168;2022-12-16T01:30:22;67.57;;;29.73;;
10399;SDS011;10031;51.180;17.168;2022-12-16T01:32:48;39.37;;;19.27;;
10399;SDS011;10031;51.180;17.168;2022-12-16T01:35:15;61.47;;;28.37;;
10399;SDS011;10031;51.180;17.168;2022-12-16T01:37:41;91.90;;;36.77;;
10399;SDS011;10031;51.180;17.168;2022-12-16T01:40:08;81.23;;;34.57;;
10399;SDS011;10031;51.180;17.168;2022-12-16T01:42:42;79.23;;;34.63;;
10399;SDS011;10031;51.180;17.168;2022-12-16T01:45:31;72.77;;;31.57;;
10399;SDS011;10031;51.180;17.168;2022-12-16T01:48:02;72.57;;;31.07;;
10399;SDS011;10031;51.180;17.168;2022-12-16T01:50:38;75.27;;;31.33;;
10399;SDS011;10031;51.180;17.168;2022-12-16T01:53:05;85.00;;;34.90;;
10399;SDS011;10031;51.180;17.168;2022-12-16T01:55:40;84.70;;;32.40;;
10399;SDS011;10031;51.180;17.168;2022-12-16T01:58:19;77.33;;;35.20;;
10399;SDS011;10031;51.180;17.168;2022-12-16T02:00:48;62.30;;;27.80;;
10399;SDS011;10031;51.180;17.168;2022-12-16T02:03:14;82.57;;;35.20;;
10399;SDS011;10031;51.180;17.168;2022-12-16T02:05:40;65.97;;;27.10;;
10399;SDS011;10031;51.180;17.168;2022-12-16T02:10:41;74.20;;;33.47;;
10399;SDS011;10031;51.180;17.168;2022-12-16T02:16:04;72.37;;;31.40;;
10399;SDS011;10031;51.180;17.168;2022-12-16T02:28:52;63.93;;;27.03;;
10399;SDS011;10031;51.180;17.168;2022-12-16T02:31:46;61.77;;;26.70;;
10399;SDS011;10031;51.180;17.168;2022-12-16T02:34:43;39.07;;;18.60;;
10399;SDS011;10031;51.180;17.168;2022-12-16T02:39:51;48.93;;;20.37;;
10399;SDS011;10031;51.180;17.168;2022-12-16T02:42:29;53.30;;;23.03;;
10399;SDS011;10031;51.180;17.168;2022-12-16T02:45:06;45.70;;;22.97;;
10399;SDS011;10031;51.180;17.168;2022-12-16T02:47:38;54.53;;;23.57;;
10399;SDS011;10031;51.180;17.168;2022-12-16T02:50:05;65.00;;;26.80;;
10399;SDS011;10031;51.180;17.168;2022-12-16T02:52:58;65.40;;;25.60;;
10399;SDS011;10031;51.180;17.168;2022-12-16T02:58:14;55.67;;;24.93;;
10399;SDS011;10031;51.180;17.168;2022-12-16T03:03:23;64.83;;;25.87;;
10399;SDS011;10031;51.180;17.168;2022-12-16T03:06:10;60.23;;;25.03;;
10399;SDS011;10031;51.180;17.168;2022-12-16T03:08:39;71.93;;;29.90;;
10399;SDS011;10031;51.180;17.168;2022-12-16T03:11:09;57.30;;;27.13;;
10399;SDS011;10031;51.180;17.168;2022-12-16T03:13:40;60.33;;;27.73;;
10399;SDS011;10031;51.180;17.168;2022-12-16T03:16:09;66.00;;;26.57;;
10399;SDS011;10031;51.180;17.168;2022-12-16T03:18:39;37.47;;;18.60;;
10399;SDS011;10031;51.180;17.168;2022-12-16T03:21:09;65.80;;;25.60;;
10399;SDS011;10031;51.180;17.168;2022-12-16T03:23:45;66.70;;;29.47;;
10399;SDS011;10031;51.180;17.168;2022-12-16T03:26:20;60.70;;;27.43;;
10399;SDS011;10031;51.180;17.168;2022-12-16T03:28:54;43.47;;;18.87;;
10399;SDS011;10031;51.180;17.168;2022-12-16T03:31:29;56.40;;;24.40;;
10399;SDS011;10031;51.180;17.168;2022-12-16T03:34:16;61.33;;;28.07;;
10399;SDS011;10031;51.180;17.168;2022-12-16T03:37:07;55.60;;;23.30;;
10399;SDS011;10031;51.180;17.168;2022-12-16T03:39:34;56.37;;;24.63;;
10399;SDS011;10031;51.180;17.168;2022-12-16T03:42:05;41.70;;;18.50;;
10399;SDS011;10031;51.180;17.168;2022-12-16T03:44:33;65.37;;;24.67;;
10399;SDS011;10031;51.180;17.168;2022-12-16T03:47:03;51.77;;;22.47;;
10399;SDS011;10031;51.180;17.168;2022-12-16T03:49:30;36.50;;;17.93;;
10399;SDS011;10031;51.180;17.168;2022-12-16T03:51:56;61.07;;;26.57;;
10399;SDS011;10031;51.180;17.168;2022-12-16T03:54:22;33.00;;;16.37;;
10399;SDS011;10031;51.180;17.168;2022-12-16T03:56:48;59.07;;;27.83;;
10399;SDS011;10031;51.180;17.168;2022-12-16T03:59:19;48.03;;;19.23;;
10399;SDS011;10031;51.180;17.168;2022-12-16T04:01:45;53.07;;;21.23;;
10399;SDS011;10031;51.180;17.168;2022-12-16T04:04:11;25.80;;;11.83;;
10399;SDS011;10031;51.180;17.168;2022-12-16T04:06:38;43.30;;;15.73;;
10399;SDS011;10031;51.180;17.168;2022-12-16T04:09:04;42.90;;;19.53;;
10399;SDS011;10031;51.180;17.168;2022-12-16T04:11:30;46.70;;;19.17;;
10399;SDS011;10031;51.180;17.168;2022-12-16T04:14:22;37.93;;;18.07;;
10399;SDS011;10031;51.180;17.168;2022-12-16T04:17:09;36.07;;;16.87;;
10399;SDS011;10031;51.180;17.168;2022-12-16T04:19:56;53.63;;;23.27;;
10399;SDS011;10031;51.180;17.168;2022-12-16T04:22:41;27.90;;;12.37;;
10399;SDS011;10031;51.180;17.168;2022-12-16T04:25:28;48.07;;;19.03;;
10399;SDS011;10031;51.180;17.168;2022-12-16T04:27:54;41.17;;;21.03;;
10399;SDS011;10031;51.180;17.168;2022-12-16T04:30:22;63.63;;;26.70;;
10399;SDS011;10031;51.180;17.168;2022-12-16T04:32:59;47.97;;;22.27;;
10399;SDS011;10031;51.180;17.168;2022-12-16T04:35:46;51.13;;;20.53;;
10399;SDS011;10031;51.180;17.168;2022-12-16T04:38:30;49.83;;;21.80;;
10399;SDS011;10031;51.180;17.168;2022-12-16T04:41:17;47.50;;;21.67;;
10399;SDS011;10031;51.180;17.168;2022-12-16T04:44:07;42.67;;;20.60;;
10399;SDS011;10031;51.180;17.168;2022-12-16T04:46:52;62.80;;;26.30;;
10399;SDS011;10031;51.180;17.168;2022-12-16T04:49:50;51.57;;;24.13;;
10399;SDS011;10031;51.180;17.168;2022-12-16T04:52:36;39.87;;;16.43;;
10399;SDS011;10031;51.180;17.168;2022-12-16T04:55:20;60.17;;;24.93;;
10399;SDS011;10031;51.180;17.168;2022-12-16T04:58:04;50.00;;;22.10;;
10399;SDS011;10031;51.180;17.168;2022-12-16T05:00:50;53.40;;;23.90;;
10399;SDS011;10031;51.180;17.168;2022-12-16T05:03:35;49.67;;;20.80;;
10399;SDS011;10031;51.180;17.168;2022-12-16T05:06:20;50.20;;;21.73;;
10399;SDS011;10031;51.180;17.168;2022-12-16T05:09:04;44.60;;;21.63;;
10399;SDS011;10031;51.180;17.168;2022-12-16T05:11:49;46.17;;;20.13;;
10399;SDS011;10031;51.180;17.168;2022-12-16T05:14:34;46.57;;;20.17;;
10399;SDS011;10031;51.180;17.168;2022-12-16T05:17:18;52.33;;;22.50;;
10399;SDS011;10031;51.180;17.168;2022-12-16T05:20:03;37.10;;;15.80;;
10399;SDS011;10031;51.180;17.168;2022-12-16T05:22:48;46.03;;;18.90;;
10399;SDS011;10031;51.180;17.168;2022-12-16T05:25:32;39.97;;;16.80;;
10399;SDS011;10031;51.180;17.168;2022-12-16T05:28:17;42.90;;;17.83;;
10399;SDS011;10031;51.180;17.168;2022-12-16T05:31:02;29.20;;;14.30;;
10399;SDS011;10031;51.180;17.168;2022-12-16T05:33:48;53.50;;;24.20;;
10399;SDS011;10031;51.180;17.168;2022-12-16T05:36:33;45.20;;;19.87;;
10399;SDS011;10031;51.180;17.168;2022-12-16T05:39:22;40.67;;;19.27;;
10399;SDS011;10031;51.180;17.168;2022-12-16T05:42:06;56.57;;;24.47;;
10399;SDS011;10031;51.180;17.168;2022-12-16T05:44:51;51.03;;;22.27;;
10399;SDS011;10031;51.180;17.168;2022-12-16T05:47:36;56.93;;;27.50;;
10399;SDS011;10031;51.180;17.168;2022-12-16T05:50:21;82.23;;;33.40;;
10399;SDS011;10031;51.180;17.168;2022-12-16T05:53:05;82.23;;;36.30;;
10399;SDS011;10031;51.180;17.168;2022-12-16T05:55:53;74.53;;;29.63;;
10399;SDS011;10031;51.180;17.168;2022-12-16T05:58:37;70.83;;;28.77;;
10399;SDS011;10031;51.180;17.168;2022-12-16T06:01:22;76.27;;;31.50;;
10399;SDS011;10031;51.180;17.168;2022-12-16T06:04:07;49.37;;;17.70;;
10399;SDS011;10031;51.180;17.168;2022-12-16T06:06:52;54.00;;;25.00;;
10399;SDS011;10031;51.180;17.168;2022-12-16T06:09:37;22.80;;;13.80;;
10399;SDS011;10031;51.180;17.168;2022-12-16T06:12:21;52.37;;;22.70;;
10399;SDS011;10031;51.180;17.168;2022-12-16T06:15:06;36.17;;;18.43;;
10399;SDS011;10031;51.180;17.168;2022-12-16T06:17:51;50.70;;;23.37;;
10399;SDS011;10031;51.180;17.168;2022-12-16T06:20:36;57.33;;;27.00;;
10399;SDS011;10031;51.180;17.168;2022-12-16T06:23:20;54.40;;;22.43;;
10399;SDS011;10031;51.180;17.168;2022-12-16T06:26:05;61.30;;;25.83;;
10399;SDS011;10031;51.180;17.168;2022-12-16T06:28:50;57.60;;;26.13;;
10399;SDS011;10031;51.180;17.168;2022-12-16T06:31:38;57.00;;;23.50;;
10399;SDS011;10031;51.180;17.168;2022-12-16T06:34:22;67.67;;;27.57;;
10399;SDS011;10031;51.180;17.168;2022-12-16T06:37:07;32.67;;;16.47;;
10399;SDS011;10031;51.180;17.168;2022-12-16T06:39:53;41.03;;;20.73;;
10399;SDS011;10031;51.180;17.168;2022-12-16T06:42:41;52.87;;;21.97;;
10399;SDS011;10031;51.180;17.168;2022-12-16T06:45:27;40.67;;;17.57;;
10399;SDS011;10031;51.180;17.168;2022-12-16T06:48:31;41.27;;;17.20;;
10399;SDS011;10031;51.180;17.168;2022-12-16T06:51:16;51.17;;;21.53;;
10399;SDS011;10031;51.180;17.168;2022-12-16T06:54:00;31.67;;;14.77;;
10399;SDS011;10031;51.180;17.168;2022-12-16T06:56:45;34.37;;;17.57;;
10399;SDS011;10031;51.180;17.168;2022-12-16T06:59:29;37.20;;;15.87;;
10399;SDS011;10031;51.180;17.168;2022-12-16T07:02:18;44.70;;;20.60;;
10399;SDS011;10031;51.180;17.168;2022-12-16T07:05:04;50.63;;;21.93;;
10399;SDS011;10031;51.180;17.168;2022-12-16T07:07:50;45.70;;;19.13;;
10399;SDS011;10031;51.180;17.168;2022-12-16T07:10:36;33.40;;;15.40;;
10399;SDS011;10031;51.180;17.168;2022-12-16T07:13:21;46.07;;;20.13;;
10399;SDS011;10031;51.180;17.168;2022-12-16T07:16:06;38.17;;;16.57;;
10399;SDS011;10031;51.180;17.168;2022-12-16T07:18:50;27.97;;;13.40;;
10399;SDS011;10031;51.180;17.168;2022-12-16T07:21:38;20.23;;;9.17;;
10399;SDS011;10031;51.180;17.168;2022-12-16T07:24:23;27.73;;;16.60;;
10399;SDS011;10031;51.180;17.168;2022-12-16T07:27:07;30.77;;;12.63;;
10399;SDS011;10031;51.180;17.168;2022-12-16T07:29:52;37.83;;;16.13;;
10399;SDS011;10031;51.180;17.168;2022-12-16T07:32:37;29.83;;;15.53;;
10399;SDS011;10031;51.180;17.168;2022-12-16T07:35:21;39.27;;;16.10;;
10399;SDS011;10031;51.180;17.168;2022-12-16T07:38:06;27.43;;;12.77;;
10399;SDS011;10031;51.180;17.168;2022-12-16T07:40:52;37.30;;;17.83;;
10399;SDS011;10031;51.180;17.168;2022-12-16T07:43:36;42.97;;;18.77;;
10399;SDS011;10031;51.180;17.168;2022-12-16T07:46:21;47.53;;;23.10;;
10399;SDS011;10031;51.180;17.168;2022-12-16T07:49:07;46.07;;;16.97;;
10399;SDS011;10031;51.180;17.168;2022-12-16T07:51:57;53.70;;;21.87;;
10399;SDS011;10031;51.180;17.168;2022-12-16T07:57:49;41.90;;;19.57;;
10399;SDS011;10031;51.180;17.168;2022-12-16T08:00:38;54.00;;;24.57;;
10399;SDS011;10031;51.180;17.168;2022-12-16T08:03:22;62.80;;;27.17;;
10399;SDS011;10031;51.180;17.168;2022-12-16T08:06:07;56.97;;;22.03;;
10399;SDS011;10031;51.180;17.168;2022-12-16T08:08:51;59.97;;;24.20;;
10399;SDS011;10031;51.180;17.168;2022-12-16T08:11:36;64.60;;;28.33;;
10399;SDS011;10031;51.180;17.168;2022-12-16T08:14:21;50.53;;;25.03;;
10399;SDS011;10031;51.180;17.168;2022-12-16T08:17:05;39.47;;;19.90;;
10399;SDS011;10031;51.180;17.168;2022-12-16T08:19:51;41.53;;;18.63;;
10399;SDS011;10031;51.180;17.168;2022-12-16T08:22:35;63.53;;;30.17;;
10399;SDS011;10031;51.180;17.168;2022-12-16T08:25:20;65.37;;;28.87;;
10399;SDS011;10031;51.180;17.168;2022-12-16T08:28:05;60.13;;;23.53;;
10399;SDS011;10031;51.180;17.168;2022-12-16T08:30:50;46.93;;;20.53;;
10399;SDS011;10031;51.180;17.168;2022-12-16T08:33:34;35.27;;;17.90;;
10399;SDS011;10031;51.180;17.168;2022-12-16T08:36:19;55.97;;;24.43;;
10399;SDS011;10031;51.180;17.168;2022-12-16T08:39:03;50.93;;;23.90;;
10399;SDS011;10031;51.180;17.168;2022-12-16T08:41:48;54.00;;;25.17;;
10399;SDS011;10031;51.180;17.168;2022-12-16T08:44:33;62.30;;;28.50;;
10399;SDS011;10031;51.180;17.168;2022-12-16T08:47:18;67.20;;;32.70;;
10399;SDS011;10031;51.180;17.168;2022-12-16T08:50:02;74.03;;;33.20;;
10399;SDS011;10031;51.180;17.168;2022-12-16T08:52:48;65.47;;;28.23;;
10399;SDS011;10031;51.180;17.168;2022-12-16T08:55:32;75.70;;;33.10;;
10399;SDS011;10031;51.180;17.168;2022-12-16T08:58:17;74.87;;;32.43;;
10399;SDS011;10031;51.180;17.168;2022-12-16T09:01:05;77.20;;;32.20;;
10399;SDS011;10031;51.180;17.168;2022-12-16T09:03:50;41.93;;;20.10;;
10399;SDS011;10031;51.180;17.168;2022-12-16T09:06:34;40.90;;;20.00;;
10399;SDS011;10031;51.180;17.168;2022-12-16T09:09:19;55.23;;;25.20;;
10399;SDS011;10031;51.180;17.168;2022-12-16T09:12:04;49.83;;;25.27;;
10399;SDS011;10031;51.180;17.168;2022-12-16T09:14:49;74.63;;;32.77;;
10399;SDS011;10031;51.180;17.168;2022-12-16T09:17:37;80.33;;;34.57;;
10399;SDS011;10031;51.180;17.168;2022-12-16T09:20:22;91.30;;;41.27;;
10399;SDS011;10031;51.180;17.168;2022-12-16T09:23:07;89.97;;;38.73;;
10399;SDS011;10031;51.180;17.168;2022-12-16T09:25:51;70.00;;;30.80;;
10399;SDS011;10031;51.180;17.168;2022-12-16T09:28:36;75.50;;;34.07;;
10399;SDS011;10031;51.180;17.168;2022-12-16T09:31:21;28.97;;;15.57;;
10399;SDS011;10031;51.180;17.168;2022-12-16T09:34:06;73.47;;;31.67;;
10399;SDS011;10031;51.180;17.168;2022-12-16T09:36:50;86.07;;;33.97;;
10399;SDS011;10031;51.180;17.168;2022-12-16T09:39:41;71.13;;;30.97;;
10399;SDS011;10031;51.180;17.168;2022-12-16T09:45:53;78.77;;;36.20;;
10399;SDS011;10031;51.180;17.168;2022-12-16T09:48:46;84.30;;;36.97;;
10399;SDS011;10031;51.180;17.168;2022-12-16T09:51:38;62.60;;;28.70;;
10399;SDS011;10031;51.180;17.168;2022-12-16T09:54:25;73.57;;;32.77;;
10399;SDS011;10031;51.180;17.168;2022-12-16T09:57:10;81.13;;;36.43;;
10399;SDS011;10031;51.180;17.168;2022-12-16T09:59:58;86.43;;;38.37;;
10399;SDS011;10031;51.180;17.168;2022-12-16T10:02:48;80.63;;;35.57;;
10399;SDS011;10031;51.180;17.168;2022-12-16T10:12:15;86.23;;;35.73;;
10399;SDS011;10031;51.180;17.168;2022-12-16T10:18:36;64.33;;;30.20;;
10399;SDS011;10031;51.180;17.168;2022-12-16T10:27:58;47.30;;;22.20;;
10399;SDS011;10031;51.180;17.168;2022-12-16T10:31:13;68.80;;;29.63;;
10399;SDS011;10031;51.180;17.168;2022-12-16T10:34:00;89.50;;;39.60;;
10399;SDS011;10031;51.180;17.168;2022-12-16T10:36:46;91.93;;;39.70;;
10399;SDS011;10031;51.180;17.168;2022-12-16T10:39:35;72.20;;;32.93;;
10399;SDS011;10031;51.180;17.168;2022-12-16T10:42:25;68.43;;;32.57;;
10399;SDS011;10031;51.180;17.168;2022-12-16T10:45:15;89.53;;;37.83;;
10399;SDS011;10031;51.180;17.168;2022-12-16T10:48:05;80.90;;;34.83;;
10399;SDS011;10031;51.180;17.168;2022-12-16T10:50:53;80.57;;;36.57;;
10399;SDS011;10031;51.180;17.168;2022-12-16T10:53:42;93.23;;;39.47;;
10399;SDS011;10031;51.180;17.168;2022-12-16T10:56:52;88.80;;;38.97;;
10399;SDS011;10031;51.180;17.168;2022-12-16T10:59:38;54.50;;;25.67;;
10399;SDS011;10031;51.180;17.168;2022-12-16T11:02:24;91.20;;;42.03;;
10399;SDS011;10031;51.180;17.168;2022-12-16T11:05:21;73.07;;;32.53;;
10399;SDS011;10031;51.180;17.168;2022-12-16T11:08:29;85.07;;;38.20;;
10399;SDS011;10031;51.180;17.168;2022-12-16T11:11:28;87.10;;;38.20;;
10399;SDS011;10031;51.180;17.168;2022-12-16T11:14:15;79.27;;;35.63;;
10399;SDS011;10031;51.180;17.168;2022-12-16T11:17:13;87.20;;;38.73;;
10399;SDS011;10031;51.180;17.168;2022-12-16T11:20:19;75.47;;;34.40;;
10399;SDS011;10031;51.180;17.168;2022-12-16T11:31:51;90.47;;;42.27;;
10399;SDS011;10031;51.180;17.168;2022-12-16T11:34:43;94.93;;;42.20;;
10399;SDS011;10031;51.180;17.168;2022-12-16T11:37:31;90.40;;;38.17;;
10399;SDS011;10031;51.180;17.168;2022-12-16T11:40:17;78.03;;;35.87;;
10399;SDS011;10031;51.180;17.168;2022-12-16T11:43:03;94.20;;;37.57;;
10399;SDS011;10031;51.180;17.168;2022-12-16T11:45:49;104.77;;;43.67;;
10399;SDS011;10031;51.180;17.168;2022-12-16T11:48:40;85.83;;;38.10;;
10399;SDS011;10031;51.180;17.168;2022-12-16T11:51:54;71.60;;;29.63;;
10399;SDS011;10031;51.180;17.168;2022-12-16T11:54:51;93.20;;;40.07;;
10399;SDS011;10031;51.180;17.168;2022-12-16T12:00:30;78.13;;;34.30;;
10399;SDS011;10031;51.180;17.168;2022-12-16T12:03:21;88.00;;;38.57;;
10399;SDS011;10031;51.180;17.168;2022-12-16T12:09:19;66.93;;;30.57;;
10399;SDS011;10031;51.180;17.168;2022-12-16T12:15:40;86.00;;;39.10;;
10399;SDS011;10031;51.180;17.168;2022-12-16T12:24:37;78.60;;;34.13;;
10399;SDS011;10031;51.180;17.168;2022-12-16T12:30:17;89.13;;;38.07;;
10399;SDS011;10031;51.180;17.168;2022-12-16T12:33:23;88.77;;;37.10;;
10399;SDS011;10031;51.180;17.168;2022-12-16T12:47:52;86.43;;;36.03;;
10399;SDS011;10031;51.180;17.168;2022-12-16T12:50:43;101.13;;;43.07;;
10399;SDS011;10031;51.180;17.168;2022-12-16T12:57:12;65.70;;;29.70;;
10399;SDS011;10031;51.180;17.168;2022-12-16T13:00:05;63.83;;;29.80;;
10399;SDS011;10031;51.180;17.168;2022-12-16T13:06:25;94.93;;;40.33;;
10399;SDS011;10031;51.180;17.168;2022-12-16T13:20:45;100.70;;;43.77;;
10399;SDS011;10031;51.180;17.168;2022-12-16T13:26:25;60.40;;;24.23;;
10399;SDS011;10031;51.180;17.168;2022-12-16T13:29:22;106.70;;;43.27;;
10399;SDS011;10031;51.180;17.168;2022-12-16T13:35:02;112.93;;;44.27;;
10399;SDS011;10031;51.180;17.168;2022-12-16T13:37:57;117.13;;;46.67;;
10399;SDS011;10031;51.180;17.168;2022-12-16T13:40:49;74.23;;;30.03;;
10399;SDS011;10031;51.180;17.168;2022-12-16T13:46:41;104.77;;;45.97;;
10399;SDS011;10031;51.180;17.168;2022-12-16T13:49:48;82.20;;;36.53;;
10399;SDS011;10031;51.180;17.168;2022-12-16T13:55:41;106.30;;;44.60;;
10399;SDS011;10031;51.180;17.168;2022-12-16T13:58:44;103.33;;;42.33;;
10399;SDS011;10031;51.180;17.168;2022-12-16T14:04:45;71.03;;;30.97;;
10399;SDS011;10031;51.180;17.168;2022-12-16T14:07:34;71.40;;;31.97;;
10399;SDS011;10031;51.180;17.168;2022-12-16T14:13:15;93.10;;;38.07;;
10399;SDS011;10031;51.180;17.168;2022-12-16T14:25:11;100.70;;;41.70;;
10399;SDS011;10031;51.180;17.168;2022-12-16T14:27:58;109.57;;;45.47;;
10399;SDS011;10031;51.180;17.168;2022-12-16T14:30:46;103.03;;;40.57;;
10399;SDS011;10031;51.180;17.168;2022-12-16T14:33:31;99.10;;;44.13;;
10399;SDS011;10031;51.180;17.168;2022-12-16T14:39:09;128.30;;;53.10;;
10399;SDS011;10031;51.180;17.168;2022-12-16T14:42:03;114.67;;;45.57;;
10399;SDS011;10031;51.180;17.168;2022-12-16T14:45:00;117.47;;;49.20;;
10399;SDS011;10031;51.180;17.168;2022-12-16T14:47:44;103.87;;;42.43;;
10399;SDS011;10031;51.180;17.168;2022-12-16T14:50:29;124.38;;;54.17;;
10399;SDS011;10031;51.180;17.168;2022-12-16T14:53:18;107.53;;;44.13;;
10399;SDS011;10031;51.180;17.168;2022-12-16T14:56:23;107.53;;;42.57;;
10399;SDS011;10031;51.180;17.168;2022-12-16T14:59:08;109.97;;;44.80;;
10399;SDS011;10031;51.180;17.168;2022-12-16T15:05:25;95.43;;;38.43;;
10399;SDS011;10031;51.180;17.168;2022-12-16T15:08:15;116.03;;;45.60;;
10399;SDS011;10031;51.180;17.168;2022-12-16T15:11:00;97.77;;;39.03;;
10399;SDS011;10031;51.180;17.168;2022-12-16T15:13:46;105.90;;;40.13;;
10399;SDS011;10031;51.180;17.168;2022-12-16T15:16:36;100.30;;;41.23;;
10399;SDS011;10031;51.180;17.168;2022-12-16T15:19:21;109.07;;;45.90;;
10399;SDS011;10031;51.180;17.168;2022-12-16T15:22:10;108.63;;;44.47;;
10399;SDS011;10031;51.180;17.168;2022-12-16T15:24:57;103.77;;;39.03;;
10399;SDS011;10031;51.180;17.168;2022-12-16T15:27:42;95.37;;;39.93;;
10399;SDS011;10031;51.180;17.168;2022-12-16T15:33:29;93.63;;;39.60;;
10399;SDS011;10031;51.180;17.168;2022-12-16T15:39:00;107.97;;;42.87;;
10399;SDS011;10031;51.180;17.168;2022-12-16T15:41:45;80.40;;;33.67;;
10399;SDS011;10031;51.180;17.168;2022-12-16T15:44:30;103.83;;;41.53;;
10399;SDS011;10031;51.180;17.168;2022-12-16T15:47:26;107.13;;;43.20;;
10399;SDS011;10031;51.180;17.168;2022-12-16T15:50:17;90.17;;;38.33;;
10399;SDS011;10031;51.180;17.168;2022-12-16T15:53:13;108.10;;;43.87;;
10399;SDS011;10031;51.180;17.168;2022-12-16T15:55:57;92.53;;;37.83;;
10399;SDS011;10031;51.180;17.168;2022-12-16T15:58:42;109.97;;;45.57;;
10399;SDS011;10031;51.180;17.168;2022-12-16T16:01:27;99.70;;;37.50;;
10399;SDS011;10031;51.180;17.168;2022-12-16T16:04:19;111.30;;;39.80;;
10399;SDS011;10031;51.180;17.168;2022-12-16T16:07:12;116.97;;;45.53;;
10399;SDS011;10031;51.180;17.168;2022-12-16T16:10:20;110.60;;;46.13;;
10399;SDS011;10031;51.180;17.168;2022-12-16T16:13:06;95.83;;;39.37;;
10399;SDS011;10031;51.180;17.168;2022-12-16T16:15:51;106.33;;;42.97;;
10399;SDS011;10031;51.180;17.168;2022-12-16T16:18:36;118.37;;;45.40;;
10399;SDS011;10031;51.180;17.168;2022-12-16T16:21:21;115.20;;;48.67;;
10399;SDS011;10031;51.180;17.168;2022-12-16T16:24:06;135.90;;;62.30;;
10399;SDS011;10031;51.180;17.168;2022-12-16T16:26:52;127.07;;;51.93;;
10399;SDS011;10031;51.180;17.168;2022-12-16T16:29:37;101.27;;;42.57;;
10399;SDS011;10031;51.180;17.168;2022-12-16T16:32:21;112.07;;;48.47;;
10399;SDS011;10031;51.180;17.168;2022-12-16T16:35:06;112.73;;;47.57;;
10399;SDS011;10031;51.180;17.168;2022-12-16T16:37:50;107.37;;;45.50;;
10399;SDS011;10031;51.180;17.168;2022-12-16T16:40:36;143.63;;;57.90;;
10399;SDS011;10031;51.180;17.168;2022-12-16T16:43:22;110.13;;;47.33;;
10399;SDS011;10031;51.180;17.168;2022-12-16T16:49:09;119.00;;;44.93;;
10399;SDS011;10031;51.180;17.168;2022-12-16T16:51:55;140.93;;;54.50;;
10399;SDS011;10031;51.180;17.168;2022-12-16T16:54:40;93.43;;;38.27;;
10399;SDS011;10031;51.180;17.168;2022-12-16T16:57:25;132.83;;;53.17;;
10399;SDS011;10031;51.180;17.168;2022-12-16T17:00:13;131.37;;;52.73;;
10399;SDS011;10031;51.180;17.168;2022-12-16T17:02:58;128.80;;;52.37;;
10399;SDS011;10031;51.180;17.168;2022-12-16T17:05:51;123.07;;;49.70;;
10399;SDS011;10031;51.180;17.168;2022-12-16T17:08:35;128.07;;;54.07;;
10399;SDS011;10031;51.180;17.168;2022-12-16T17:11:20;117.00;;;46.23;;
10399;SDS011;10031;51.180;17.168;2022-12-16T17:14:09;121.27;;;48.30;;
10399;SDS011;10031;51.180;17.168;2022-12-16T17:16:56;120.83;;;49.47;;
10399;SDS011;10031;51.180;17.168;2022-12-16T17:19:41;108.07;;;43.80;;
10399;SDS011;10031;51.180;17.168;2022-12-16T17:22:26;96.70;;;39.70;;
10399;SDS011;10031;51.180;17.168;2022-12-16T17:25:11;98.23;;;38.73;;
10399;SDS011;10031;51.180;17.168;2022-12-16T17:27:56;127.17;;;51.30;;
10399;SDS011;10031;51.180;17.168;2022-12-16T17:30:44;71.40;;;23.60;;
10399;SDS011;10031;51.180;17.168;2022-12-16T17:33:30;112.37;;;44.80;;
10399;SDS011;10031;51.180;17.168;2022-12-16T17:36:15;119.97;;;47.03;;
10399;SDS011;10031;51.180;17.168;2022-12-16T17:39:00;95.23;;;39.53;;
10399;SDS011;10031;51.180;17.168;2022-12-16T17:41:45;107.03;;;42.27;;
10399;SDS011;10031;51.180;17.168;2022-12-16T17:44:30;120.90;;;49.10;;
10399;SDS011;10031;51.180;17.168;2022-12-16T17:47:15;109.70;;;46.70;;
10399;SDS011;10031;51.180;17.168;2022-12-16T17:49:59;128.00;;;52.37;;
10399;SDS011;10031;51.180;17.168;2022-12-16T17:52:44;107.83;;;42.80;;
10399;SDS011;10031;51.180;17.168;2022-12-16T17:55:29;142.53;;;54.87;;
10399;SDS011;10031;51.180;17.168;2022-12-16T17:58:14;127.93;;;53.07;;
10399;SDS011;10031;51.180;17.168;2022-12-16T18:00:59;128.37;;;54.13;;
10399;SDS011;10031;51.180;17.168;2022-12-16T18:03:45;114.03;;;43.93;;